Latest Weather Observations for Cessnock Airport

IDN60801

Issued at 5:35 pm EDT Friday 24 October 2014 (issued every 30 minutes, with the page automatically refreshed every 10 minutes)

About weather observations | Map of weather stations | Latest weather observations for NSW | Other Formats
Station Details ID: 061260 Name: CESSNOCK AIRPORT AWS Lat: -32.79 Lon: 151.34 Height: 61.0 m
Data from the previous 72 hours. | See also: Recent months at Cessnock Airport
Date/Time
EDT
Temp
°C
App
Temp
°C
Dew
Point
Rel
Hum
%
Delta-T
°C
Wind Press
QNH
hPa
Press
MSL
hPa
Rain
since 9 am
mm
Dir
 
Spd
km/h
Gust
km/h
Spd
kts
Gust
kts
24/05:30pm 29.1 27.5 11.6 33 10.1 ENE 11 17 6 9 1012.8 1012.7 0.2
24/05:00pm 29.1 27.1 11.6 33 10.1 ENE 13 19 7 10 1012.9 1012.8 0.2
24/04:30pm 29.7 28.2 13.0 35 9.9 ENE 13 17 7 9 1013.3 1013.2 0.2
24/04:00pm 28.9 27.2 12.3 36 9.7 NE 13 24 7 13 1013.7 1013.6 0.2
24/03:30pm 28.9 27.4 13.2 38 9.3 NNE 13 20 7 11 1014.4 1014.3 0.2
24/03:00pm 28.2 26.1 11.3 35 9.7 NE 13 19 7 10 1015.1 1015.0 0.2
24/02:30pm 27.8 26.0 13.3 40 8.6 NE 15 20 8 11 1015.7 1015.6 0.2
24/02:00pm 26.5 25.7 13.9 45 7.5 N 11 17 6 9 1016.4 1016.3 0.2
24/01:30pm 25.5 24.2 13.7 48 7.0 NNE 13 19 7 10 1017.1 1017.0 0.2
24/01:00pm 24.6 24.9 15.0 55 5.8 NE 7 13 4 7 1017.7 1017.6 0.2
24/12:30pm 23.3 23.7 15.4 61 4.7 N 7 11 4 6 1018.2 1018.1 0.2
24/12:00pm 22.9 23.6 15.7 64 4.3 NE 6 7 3 4 1018.8 1018.7 0.2
24/11:30am 22.3 23.0 16.1 68 3.8 ESE 7 13 4 7 1019.6 1019.5 0.2
24/11:00am 21.9 22.8 15.0 65 4.1 ENE 4 9 2 5 1020.2 1020.1 0.2
24/10:30am 21.7 21.8 16.6 73 3.1 N 11 17 6 9 1019.8 1019.7 0.2
24/10:00am 19.8 20.4 15.9 78 2.3 W 7 17 4 9 1020.2 1020.1 0.2
24/09:45am 19.2 17.3 15.7 80 2.1 NE 20 22 11 12 1019.2 1019.1 0.2
24/09:30am 19.7 20.0 14.9 74 2.8 SSW 7 13 4 7 1021.2 1021.1 0.0
24/09:00am 19.7 20.8 14.5 72 3.0 S 2 7 1 4 1020.4 1020.3 0.0
24/08:30am 19.1 20.4 16.1 83 1.8 W 4 11 2 6 1020.2 1020.1 0.0
24/08:00am 17.1 17.9 16.3 95 0.5 NNW 7 13 4 7 1019.9 1019.8 0.0
24/07:30am 16.7 18.1 16.4 98 0.2 S 4 9 2 5 1019.8 1019.7 0.0
24/07:00am 15.9 17.3 15.4 97 0.3 N 2 6 1 3 1020.0 1019.9 0.0
24/06:30am 16.0 16.7 15.5 97 0.3 N 6 9 3 5 1019.6 1019.5 0.0
24/06:00am 16.8 17.9 16.6 99 0.1 SE 6 11 3 6 1019.7 1019.6 0.0
24/05:30am 15.9 16.2 15.9 100 0.0 SSW 9 17 5 9 1020.2 1020.1 0.0
24/05:00am 12.2 11.7 12.2 100 0.0 SE 6 7 3 4 1019.7 1019.6 0.0
24/04:30am 12.2 12.5 12.2 100 0.0 SSW 2 6 1 3 1019.1 1019.0 0.0
24/04:00am 11.8 12.3 11.6 99 0.1 CALM 0 0 0 0 1018.3 1018.2 0.0
24/03:30am 12.5 12.1 12.5 100 0.0 SSW 6 9 3 5 1018.4 1018.3 0.0
24/03:00am 13.0 13.2 13.0 100 0.0 N 4 9 2 5 1018.5 1018.4 0.0
24/02:30am 12.7 11.7 12.4 98 0.2 WSW 9 11 5 6 1018.8 1018.7 0.0
24/02:00am 13.1 12.8 12.8 98 0.2 ESE 6 9 3 5 1018.4 1018.3 0.0
24/01:30am 13.8 13.5 13.3 97 0.3 WNW 7 7 4 4 1018.6 1018.5 0.0
24/01:00am 13.0 13.5 11.7 92 0.7 ESE 0 0 0 0 1018.9 1018.8 0.0
24/12:30am 13.7 13.3 12.3 91 0.8 ESE 6 7 3 4 1019.0 1018.9 0.0
24/12:00am 14.3 14.4 11.6 84 1.4 E 2 6 1 3 1019.0 1018.9 0.0
 
Date/Time
EDT
Temp
°C
App
Temp
°C
Dew
Point
Rel
Hum
%
Delta-T
°C
Wind Press
QNH
hPa
Press
MSL
hPa
Rain
since 9 am
mm
Dir
 
Spd
km/h
Gust
km/h
Spd
kts
Gust
kts
23/11:30pm 14.6 13.9 12.1 85 1.4 W 7 11 4 6 1019.3 1019.2 0.0
23/11:00pm 15.6 16.2 12.0 79 2.0 CALM 0 0 0 0 1019.1 1019.0 0.0
23/10:30pm 16.8 16.4 12.3 75 2.5 E 6 9 3 5 1019.0 1018.9 0.0
23/10:00pm 18.0 17.5 12.5 70 3.1 SSW 7 9 4 5 1018.6 1018.5 0.0
23/09:30pm 19.5 18.1 12.3 63 4.0 SSW 11 15 6 8 1018.5 1018.4 0.0
23/09:00pm 20.2 18.9 12.4 61 4.4 SSW 11 13 6 7 1018.4 1018.3 0.0
23/08:30pm 20.1 18.7 12.1 60 4.5 SSE 11 15 6 8 1018.1 1018.0 0.0
23/08:00pm 22.5 21.1 12.2 52 5.8 SSE 11 13 6 7 1017.9 1017.8 0.0
23/07:30pm 22.2 20.5 11.3 50 6.1 SSE 11 13 6 7 1017.6 1017.5 0.0
23/07:00pm 24.3 22.2 11.3 44 7.3 SE 13 17 7 9 1016.9 1016.8 0.0
23/06:30pm 25.1 21.9 11.3 42 7.8 ESE 19 28 10 15 1016.1 1016.0 0.0
23/06:00pm 26.1 23.7 11.4 39 8.4 ESE 15 22 8 12 1015.7 1015.6 0.0
23/05:30pm 27.1 24.0 10.3 35 9.4 ESE 17 24 9 13 1015.2 1015.1 0.0
23/05:00pm 27.9 24.6 9.7 32 10.2 SSE 17 20 9 11 1014.9 1014.8 0.0
23/04:30pm 29.5 25.7 9.1 28 11.4 SE 19 24 10 13 1014.4 1014.3 0.0
23/04:00pm 31.3 27.3 4.9 19 13.8 S 15 20 8 11 1014.1 1014.0 0.0
23/03:30pm 31.7 29.5 9.3 25 12.7 SE 11 17 6 9 1014.3 1014.2 0.0
23/03:00pm 31.2 27.7 7.0 22 13.1 S 15 24 8 13 1014.4 1014.3 0.0
23/02:30pm 30.3 29.0 9.8 28 11.6 SSW 7 17 4 9 1015.0 1014.9 0.0
23/02:00pm 29.8 28.7 9.9 29 11.2 S 6 11 3 6 1015.4 1015.3 0.0
23/01:30pm 29.2 28.3 10.8 32 10.5 SW 6 9 3 5 1015.9 1015.8 0.0
23/01:00pm 28.5 28.5 13.6 40 8.9 NNW 6 9 3 5 1016.4 1016.3 0.0
23/12:30pm 27.5 25.9 11.5 37 9.2 NW 11 15 6 8 1016.7 1016.6 0.0
23/12:00pm 27.8 26.8 12.2 38 9.1 NW 9 13 5 7 1017.0 1016.9 0.0
23/11:30am 25.5 24.5 12.4 44 7.6 NW 9 13 5 7 1017.4 1017.3 0.0
23/11:00am 24.3 23.3 10.9 43 7.5 NNW 7 15 4 8 1017.8 1017.7 0.0
23/10:30am 23.6 22.5 12.0 48 6.6 NW 9 13 5 7 1017.9 1017.8 0.0
23/10:00am 22.7 21.6 12.0 50 6.0 N 9 15 5 8 1018.1 1018.0 0.0
23/09:30am 21.5 21.4 13.2 59 4.8 ESE 6 9 3 5 1018.2 1018.1 0.0
23/09:00am 19.4 19.6 12.9 66 3.7 ENE 4 7 2 4 1018.4 1018.3 0.0
23/08:30am 16.8 17.5 13.5 81 1.9 S 2 7 1 4 1018.4 1018.3 0.0
23/08:00am 14.6 15.1 14.0 96 0.3 S 4 7 2 4 1018.4 1018.3 0.0
23/07:30am 12.2 12.9 12.2 100 0.0 CALM 0 0 0 0 1018.3 1018.2 0.0
23/07:00am 10.4 10.2 10.4 100 0.0 WSW 2 6 1 3 1018.2 1018.1 0.0
23/06:30am 9.9 9.9 9.9 100 0.0 CALM 0 0 0 0 1018.1 1018.0 0.0
23/06:00am 9.4 9.3 9.4 100 0.0 CALM 0 0 0 0 1018.1 1018.0 0.0
23/05:30am 9.0 8.4 9.0 100 0.0 WNW 2 7 1 4 1017.8 1017.7 0.0
23/05:00am 9.2 9.0 9.2 100 0.0 CALM 0 0 0 0 1017.8 1017.7 0.0
23/04:30am 9.3 9.1 9.2 99 0.0 CALM 0 0 0 0 1017.8 1017.7 0.0
23/04:00am 9.5 9.4 9.4 99 0.0 CALM 0 0 0 0 1017.8 1017.7 0.0
23/03:30am 9.5 9.3 9.2 98 0.1 CALM 0 0 0 0 1017.8 1017.7 0.0
23/03:00am 10.2 10.2 9.9 98 0.2 CALM 0 4 0 2 1018.0 1017.9 0.0
23/02:30am 10.3 10.3 9.8 97 0.3 CALM 0 2 0 1 1018.2 1018.1 0.0
23/02:00am 10.6 10.2 9.8 95 0.4 SSW 2 7 1 4 1018.5 1018.4 0.0
23/01:30am 11.6 11.9 11.0 96 0.3 CALM 0 0 0 0 1018.7 1018.6 0.0
23/01:00am 11.8 11.0 10.9 94 0.5 SW 6 7 3 4 1019.0 1018.9 0.0
23/12:30am 12.2 10.9 10.1 87 1.1 SW 7 9 4 5 1019.3 1019.2 0.0
23/12:00am 12.4 10.9 9.2 81 1.6 SSW 7 9 4 5 1019.5 1019.4 0.0
 
Date/Time
EDT
Temp
°C
App
Temp
°C
Dew
Point
Rel
Hum
%
Delta-T
°C
Wind Press
QNH
hPa
Press
MSL
hPa
Rain
since 9 am
mm
Dir
 
Spd
km/h
Gust
km/h
Spd
kts
Gust
kts
22/11:30pm 13.6 12.3 10.0 79 1.9 SSW 7 13 4 7 1019.6 1019.5 0.0
22/11:00pm 14.4 13.3 10.6 78 2.0 SSW 7 9 4 5 1019.7 1019.6 0.0
22/10:30pm 15.1 13.6 10.7 75 2.3 SSW 9 11 5 6 1019.9 1019.8 0.0
22/10:00pm 15.1 13.5 10.1 72 2.6 SSW 9 11 5 6 1020.0 1019.9 0.0
22/09:30pm 16.0 14.6 11.0 72 2.7 S 9 13 5 7 1020.0 1019.9 0.0
22/09:00pm 16.4 15.0 10.9 70 2.9 S 9 13 5 7 1019.9 1019.8 0.0
22/08:30pm 16.4 15.3 10.5 68 3.1 S 7 11 4 6 1019.7 1019.6 0.0
22/08:00pm 18.1 17.1 10.2 60 4.2 SE 6 9 3 5 1019.6 1019.5 0.0
22/07:30pm 19.6 17.8 10.9 57 4.7 ESE 11 15 6 8 1019.4 1019.3 0.0
22/07:00pm 20.8 19.4 10.9 53 5.4 ESE 9 15 5 8 1019.4 1019.3 0.0
22/06:30pm 22.0 19.5 11.1 50 6.0 E 15 17 8 9 1019.4 1019.3 0.0
22/06:00pm 23.0 20.3 10.4 45 6.9 E 15 20 8 11 1019.4 1019.3 0.0
22/05:30pm 23.5 19.8 9.5 41 7.6 E 19 24 10 13 1019.5 1019.4 0.0
22/05:00pm 25.0 22.7 7.6 33 9.2 NNE 9 17 5 9 1019.7 1019.6 0.0
22/04:30pm 24.8 23.3 8.3 35 8.8 N 6 11 3 6 1019.9 1019.8 0.0
22/04:00pm 24.2 21.6 6.0 31 9.3 NNE 9 13 5 7 1020.3 1020.2 0.0
22/03:30pm 24.3 22.4 6.6 32 9.2 NW 6 9 3 5 1020.8 1020.7 0.0
22/03:00pm 23.8 22.0 7.0 34 8.7 ENE 6 13 3 7 1021.2 1021.1 0.0
22/02:30pm 23.2 20.9 7.3 36 8.3 N 9 17 5 9 1021.8 1021.7 0.0
22/02:00pm 22.8 20.4 7.0 36 8.1 ENE 9 19 5 10 1022.4 1022.3 0.0
22/01:30pm 22.5 20.5 7.1 37 8.0 E 7 15 4 8 1023.1 1023.0 0.0
22/01:00pm 22.1 19.6 8.2 41 7.3 NE 11 22 6 12 1023.7 1023.6 0.0
22/12:30pm 21.4 19.2 8.0 42 7.0 ENE 9 15 5 8 1024.2 1024.1 0.0
22/12:00pm 21.1 17.4 8.0 43 6.8 NE 17 22 9 12 1024.6 1024.5 0.0
22/11:30am 21.1 17.7 9.0 46 6.4 NNE 17 28 9 15 1025.2 1025.1 0.0
22/11:00am 19.8 16.2 8.5 48 5.9 NE 17 24 9 13 1025.7 1025.6 0.0
22/10:30am 19.1 16.2 9.6 54 5.0 NE 15 26 8 14 1026.1 1026.0 0.0
22/10:00am 19.4 15.5 9.3 52 5.3 NNE 20 30 11 16 1026.4 1026.3 0.0
22/09:30am 18.2 16.3 10.6 61 4.1 E 11 17 6 9 1026.7 1026.6 0.0
22/09:00am 17.4 15.4 11.4 68 3.2 E 13 17 7 9 1026.8 1026.7 0.0
22/08:30am 16.3 15.1 11.5 73 2.6 E 9 20 5 11 1026.9 1026.8 0.0
22/08:00am 14.7 14.9 12.0 84 1.5 ENE 2 7 1 4 1026.9 1026.8 0.0
22/07:30am 12.0 12.2 11.7 98 0.2 SSE 2 7 1 4 1026.9 1026.8 0.0
22/07:00am 9.8 9.8 9.8 100 0.0 CALM 0 6 0 3 1026.9 1026.8 0.0
22/06:30am 7.8 7.3 7.8 100 0.0 CALM 0 0 0 0 1026.8 1026.7 0.0
22/06:00am 7.8 6.5 7.7 99 0.0 WSW 4 7 2 4 1026.6 1026.5 0.0
22/05:30am 8.6 8.3 8.5 99 0.0 CALM 0 7 0 4 1026.7 1026.6 0.0
22/05:00am 9.9 9.9 9.9 100 0.0 CALM 0 4 0 2 1026.7 1026.6 0.0
22/04:30am 9.5 9.4 9.5 100 0.0 CALM 0 0 0 0 1026.9 1026.8 0.0
22/04:00am 9.0 8.4 9.0 100 0.0 SW 2 6 1 3 1027.1 1027.0 0.0
22/03:30am 8.1 6.3 8.0 99 0.0 SW 7 9 4 5 1027.4 1027.3 0.0
22/03:00am 8.7 7.2 8.4 98 0.1 ESE 6 7 3 4 1027.8 1027.7 0.0
22/02:30am 9.6 9.5 9.3 98 0.1 CALM 0 0 0 0 1028.0 1027.9 0.0
22/02:00am 9.6 8.2 9.6 100 0.0 SSE 7 7 4 4 1028.4 1028.3 0.0
22/01:30am 9.2 8.3 9.2 100 0.0 S 4 7 2 4 1029.0 1028.9 0.0
22/01:00am 8.1 6.3 8.0 99 0.0 SW 7 9 4 5 1029.4 1029.3 0.0
22/12:30am 8.9 7.0 8.9 100 0.0 SSW 9 13 5 7 1029.9 1029.8 0.0
22/12:00am 8.1 5.9 7.8 98 0.1 WSW 9 11 5 6 1030.2 1030.1 0.0
 
Date/Time
EDT
Temp
°C
App
Temp
°C
Dew
Point
Rel
Hum
%
Delta-T
°C
Wind Press
QNH
hPa
Press
MSL
hPa
Rain
since 9 am
mm
Dir
 
Spd
km/h
Gust
km/h
Spd
kts
Gust
kts
21/11:30pm 8.0 6.5 6.9 93 0.5 SW 4 9 2 5 1030.4 1030.3 0.0
21/11:00pm 9.1 7.0 8.2 94 0.4 WSW 9 13 5 7 1030.4 1030.3 0.0
21/10:30pm 9.5 7.5 8.6 94 0.4 WSW 9 11 5 6 1030.5 1030.4 0.0
21/10:00pm 10.0 9.2 6.7 80 1.5 CALM 0 6 0 3 1030.6 1030.5 0.0
21/09:30pm 11.9 10.0 7.6 75 2.1 S 7 9 4 5 1030.7 1030.6 0.0
21/09:00pm 12.5 10.5 7.2 70 2.5 SE 7 9 4 5 1030.6 1030.5 0.0
21/08:30pm 14.1 11.9 7.9 66 3.1 SE 9 15 5 8 1030.3 1030.2 0.0
21/08:00pm 15.0 12.9 8.3 64 3.4 SE 9 13 5 7 1029.9 1029.8 0.0
21/07:30pm 15.7 13.2 8.0 60 3.9 ESE 11 15 6 8 1029.7 1029.6 0.0
21/07:00pm 16.1 12.8 8.1 59 4.0 ESE 15 22 8 12 1029.7 1029.6 0.0
21/06:30pm 16.5 13.2 8.0 57 4.3 ESE 15 20 8 11 1029.5 1029.4 0.0
21/06:00pm 16.9 13.3 8.3 57 4.4 ESE 17 22 9 12 1029.2 1029.1 0.0

Other Formats:

Comma delimited format used in spreadsheet applications
http://www.bom.gov.au/fwo/IDN60801/IDN60801.95771.axf

JavaScript Object Notation format (JSON) in row-major order
http://www.bom.gov.au/fwo/IDN60801/IDN60801.95771.json